BBRO2: Mountain Fork, Broken Bow Rereg

Data processed at Mon Apr 24 2017 21:35


All information presented herein is the property of the government of the United States of America and may be revised or deleted at any time without prior notice.
Dissemination of this information without the expressed written consent of the Public Affairs Office, Tulsa District U.S. Army Corps of Engineers is strictly prohibited.
These data are gathered electronically and, as presented, have not undergone any form of quality control. These data are not guaranteed to be valid or correct.
Go to home page.
Go to station list.
Go to station map.

Upstream stations:

Downstream station:
Previous Day
Next Day
Current Day
    
SHEF ID:       BBRO2     Mountain Fork Re-regulation Dam
STATION TYPE:  

                STAGE  RIV-FLOW   VOLTAGE  BAT-LOAD
                   ft       cfs      volt      volt
              Ccp-Rev   Ccp-Rev   Ccp-Rev   Ccp-Rev
(US/Central)
04/24 00:00    387.99       170     13.60     13.30
04/24 01:00    387.99       170     13.60     13.30
04/24 02:00    387.98      ----     13.60     13.30
04/24 03:00    387.97       167     13.60     13.30
04/24 04:00    387.96       165     13.60     13.30
04/24 05:00    387.95       163     13.60     13.30
04/24 06:00    387.94       161     13.60     13.30
04/24 07:00    387.94       161     13.60     13.30
04/24 08:00    387.93       160     13.60     13.30
04/24 09:00    387.92       158     13.60     13.30
04/24 10:00    387.91       156     13.60     13.30
04/24 11:00    387.90       154     13.60     12.13
04/24 12:00    387.90       154     13.60     13.30
04/24 13:00    387.89       152     13.60     13.36
04/24 14:00    387.88       151     13.60     13.30
04/24 15:00    387.87       149     13.60     13.30
04/24 16:00    387.87       149     13.60     13.30
04/24 17:00    387.87       149     13.60     13.30
04/24 18:00    387.86       147     13.60     13.30
04/24 19:00    387.86       147     13.60     13.30
04/24 20:00    387.88       151     13.60     13.30
04/24 21:00    389.28       401     13.60     13.30
04/24 22:00      ----      ----      ----      ----
04/24 23:00      ----      ----      ----      ----